Domov               UVHVVR             MKGP            O straneh              
ZDRAVSTVENO VARSTVO RASTLIN
  MREŽA AGROMET. POSTAJ
 ► PROGNOSTIČNA OBVESTILA
AGROMETEOROLOŠKI PODATKI -
ARSO
OBVLADOVANJE TVEGANJ ZARADI
NEUGODNIH VREMENSKIH RAZMER
  ► NARAVNE NESREČE
  ► SUŠA/MOČA
  ► NAMAKANJE
  ► ŽLED (gozdarstvo)
KARTOGRAFSKI PRIKAZI
SPLETNE POVEZAVE
PROJEKTI IN PUBLIKACIJE

AGROMETEOROLOŠKA MREŽA: VREMENSKE POSTAJE IN FENOLOŠKA OPAZOVANJA

Pregled podatkov za lokacijo Artiče, meteorološka postaja 42800

Pregled senzorjev na lokaciji

ID Ime Zadnja
vrednost
Datum
zadnje
spremembe
Tip
senzorja
4298 Omočenost lista (U) 6 U 15.12.2018 05:30 A730WET
3778 Padavine (mm) 0 mm 15.12.2018 05:30 Rain-O-Matic
2447 Relativna vlaga 2 m (% RH) 89,43 % RH 15.12.2018 05:30 50YA
2446 Temperatura 2 m (°C) -1,11 °C 15.12.2018 05:30 50YA

Pregled podatkov zadnjih 24 ur

Zap.
št.
Datum in čas Artiče
Omočenost
lista
Padavine Relativna
vlaga
2
m
Temperatura
2
m
1 15.12.2018 06:00
2 15.12.2018 05:30
3 15.12.2018 05:00
4 15.12.2018 04:30 7 0 88,1 -1
5 15.12.2018 04:00 7 0 87,7 -1
6 15.12.2018 03:30 7 0 88,2 -0,9
7 15.12.2018 03:00 7 0 88,4 -0,9
8 15.12.2018 02:30 7 0 89,4 -1
9 15.12.2018 02:00 7 0 91,1 -1,1
10 15.12.2018 01:30 7 0 90,6 -1
11 15.12.2018 01:00 7 0 91,2 -1
12 15.12.2018 00:30 7 0 91,2 -0,9
13 15.12.2018 00:00 7 0 93,3 -1
14 14.12.2018 23:30 7 0 95,1 -1
15 14.12.2018 23:00 7 0 93,9 -0,9
16 14.12.2018 22:30 7 0 92,2 -0,8
17 14.12.2018 22:00 7 0 91,3 -0,7
18 14.12.2018 21:30 7 0 90,5 -0,7
19 14.12.2018 21:00 7 0 90 -0,6
20 14.12.2018 20:30 7 0 90,7 -0,6
21 14.12.2018 20:00 6 0 92,4 -0,7
22 14.12.2018 19:30 6 0 93,8 -0,8
23 14.12.2018 19:00 6 0 94,2 -0,8
24 14.12.2018 18:30 6 0 94,1 -0,8
25 14.12.2018 18:00 5 0 93,1 -0,7
26 14.12.2018 17:30 2 0 89,6 -0,4
27 14.12.2018 17:00 0 0 85,9 -0,2
28 14.12.2018 16:30 0 0 85,5 -0,1
29 14.12.2018 16:00 0 0 86,3 -0,1
30 14.12.2018 15:30 0 0 86,4 0
31 14.12.2018 15:00 0 0 87,4 0,1
32 14.12.2018 14:30 1 0 88,2 0,2
33 14.12.2018 14:00 7 0 89,2 0,2
34 14.12.2018 13:30 9 0 90,6 0
35 14.12.2018 13:00 3 0 89,2 0,1
36 14.12.2018 12:30 5 0 90 0,1
37 14.12.2018 12:00 9 0 93,6 -0,2
38 14.12.2018 11:30 10 0 93,6 -0,3
39 14.12.2018 11:00 10 0 95,5 -0,4
40 14.12.2018 10:30 10 0 94,8 -0,4
41 14.12.2018 10:00 10 0 90,2 -0,2
42 14.12.2018 09:30 1 0 86 -0,1
43 14.12.2018 09:00 0 0 82,7 -0,1
44 14.12.2018 08:30 0 0 82,5 -0,2
45 14.12.2018 08:00 0 0 82,2 -0,3
46 14.12.2018 07:30 0 0 81,7 -0,3
47 14.12.2018 07:00 0 0 81,9 -0,2
48 14.12.2018 06:30 0 0 83,1 -0,2
© 2011 Ministrstvo za kmetijstvo, gozdarstvo in prehrano. Vse pravice pridržane.